Time;durP1;ratioP1;P1;durP2;ratioP2;P2;SDS_P1;SDS_P2;PMS_P1;PMS_P2;Temp;Humidity;BMP_temperature;BMP_pressure;BME280_temperature;BME280_humidity;BME280_pressure;Samples;Min_cycle;Max_cycle;Signal;HPM_P1;HPM_P2
2023/01/31 00:03:05;;;;;;;20.75;2.90;;;5.00;82.10;;;;;;9179232;19;20022;-61
2023/01/31 00:06:15;;;;;;;;;;;4.90;82.10;;;;;;9179834;19;20018;-61
2023/01/31 00:09:21;;;;;;;14.15;2.97;;;4.90;82.10;;;;;;9177686;19;19922;-61
2023/01/31 00:12:27;;;;;;;8.77;2.05;;;4.90;82.00;;;;;;9178753;19;20008;-62
2023/01/31 00:15:33;;;;;;;21.73;2.80;;;4.90;82.10;;;;;;9178534;19;20479;-62
2023/01/31 00:18:38;;;;;;;;;;;4.90;82.10;;;;;;9179890;19;20022;-61
2023/01/31 00:21:45;;;;;;;20.95;3.00;;;4.80;82.10;;;;;;9179139;19;19926;-65
2023/01/31 00:24:49;;;;;;;15.40;2.95;;;4.90;82.10;;;;;;9174302;19;20019;-62
2023/01/31 00:27:57;;;;;;;22.83;3.40;;;4.80;82.10;;;;;;9178334;19;20022;-63
2023/01/31 00:31:01;;;;;;;20.17;3.33;;;4.80;82.10;;;;;;9176848;19;20028;-62
2023/01/31 00:34:07;;;;;;;16.58;2.38;;;4.80;82.10;;;;;;9178680;19;20018;-64
2023/01/31 00:37:11;;;;;;;17.67;2.92;;;4.80;82.10;;;;;;9176759;19;20022;-61
2023/01/31 00:40:17;;;;;;;17.88;3.45;;;4.80;82.10;;;;;;9178233;19;20003;-61
2023/01/31 00:43:24;;;;;;;12.10;1.98;;;4.70;82.10;;;;;;9177758;19;20074;-62
2023/01/31 00:46:30;;;;;;;18.27;2.78;;;4.70;82.00;;;;;;9172127;19;20022;-63
2023/01/31 00:49:34;;;;;;;13.43;2.15;;;4.70;82.10;;;;;;9178915;19;20022;-63
2023/01/31 00:52:41;;;;;;;17.05;2.33;;;4.70;82.10;;;;;;9177047;19;20025;-63
2023/01/31 00:55:44;;;;;;;;;;;4.70;82.10;;;;;;9177510;19;20601;-67
2023/01/31 00:58:54;;;;;;;11.90;1.92;;;4.60;82.00;;;;;;9176897;19;19915;-62
2023/01/31 01:01:58;;;;;;;21.08;2.80;;;4.60;82.00;;;;;;9176743;19;20479;-61
2023/01/31 01:05:04;;;;;;;15.68;2.80;;;4.60;82.00;;;;;;9175532;19;20025;-65
2023/01/31 01:08:09;;;;;;;26.73;2.83;;;4.60;82.10;;;;;;9177802;19;20029;-61
2023/01/31 01:11:17;;;;;;;19.25;2.50;;;4.50;82.00;;;;;;9174450;19;20018;-62
2023/01/31 01:14:22;;;;;;;9.75;2.70;;;4.50;82.10;;;;;;9175846;19;20014;-62
2023/01/31 01:17:28;;;;;;;20.10;2.85;;;4.50;82.10;;;;;;9177427;19;20019;-64
2023/01/31 01:20:32;;;;;;;;;;;4.50;82.10;;;;;;9178662;19;20019;-60
2023/01/31 01:23:39;;;;;;;14.68;2.70;;;4.40;82.00;;;;;;9176825;19;20340;-61
2023/01/31 01:26:43;;;;;;;18.67;2.42;;;4.40;81.90;;;;;;9176926;19;20695;-64
2023/01/31 01:29:51;;;;;;;25.88;3.30;;;4.40;82.00;;;;;;9177672;19;20019;-61
2023/01/31 01:32:56;;;;;;;19.63;2.47;;;4.30;82.10;;;;;;9177039;19;20025;-63
2023/01/31 01:36:02;;;;;;;23.00;3.13;;;4.30;82.00;;;;;;9176649;19;20021;-62
2023/01/31 01:39:07;;;;;;;26.98;3.13;;;4.30;82.10;;;;;;9177575;19;20026;-62
2023/01/31 01:42:19;;;;;;;17.20;3.13;;;4.30;82.00;;;;;;9175056;19;20364;-62
2023/01/31 01:45:25;;;;;;;19.90;2.10;;;4.20;82.00;;;;;;9167914;19;20019;-62
2023/01/31 01:48:31;;;;;;;19.35;2.67;;;4.20;82.00;;;;;;9175850;19;20663;-60
2023/01/31 01:51:35;;;;;;;21.65;2.60;;;4.20;82.10;;;;;;9175916;19;20015;-61
2023/01/31 01:54:47;;;;;;;19.23;2.35;;;4.10;82.00;;;;;;9175658;19;20356;-63
2023/01/31 01:57:54;;;;;;;19.45;3.20;;;4.10;82.10;;;;;;9175769;19;20025;-61
2023/01/31 02:01:06;;;;;;;22.25;2.47;;;4.10;82.10;;;;;;9175590;19;20022;-62
2023/01/31 02:04:16;;;;;;;20.35;2.88;;;4.10;82.20;;;;;;9177440;19;20025;-61
2023/01/31 02:07:22;;;;;;;17.60;4.00;;;4.00;82.10;;;;;;9181623;19;20471;-64
2023/01/31 02:10:30;;;;;;;20.25;2.60;;;4.00;82.20;;;;;;9180727;19;20093;-62
2023/01/31 02:13:37;;;;;;;19.83;2.75;;;4.00;82.20;;;;;;9183813;19;20029;-62
2023/01/31 02:16:43;;;;;;;29.83;3.00;;;4.00;82.20;;;;;;9183102;19;20013;-61
2023/01/31 02:20:11;;;;;;;31.98;2.80;;;4.00;82.20;;;;;;9183431;19;20020;-61
2023/01/31 02:23:38;;;;;;;15.80;2.85;;;3.90;82.20;;;;;;9180878;19;20380;-64
2023/01/31 02:27:16;;;;;;;21.35;2.35;;;3.90;82.20;;;;;;9182752;19;20015;-62
2023/01/31 02:31:00;;;;;;;21.15;2.75;;;3.90;82.20;;;;;;9181898;19;20019;-61
2023/01/31 02:34:16;;;;;;;14.82;3.67;;;3.90;82.30;;;;;;9180115;19;20022;-62
2023/01/31 02:37:30;;;;;;;31.67;5.13;;;3.90;82.20;;;;;;9181112;19;20010;-62
2023/01/31 02:40:42;;;;;;;24.33;3.08;;;3.80;82.30;;;;;;9180808;19;20025;-60
2023/01/31 02:47:26;;;;;;;27.17;3.63;;;3.80;82.30;;;;;;9178048;19;20018;-61
2023/01/31 02:50:36;;;;;;;13.52;2.63;;;3.80;82.30;;;;;;9180457;19;20022;-63
2023/01/31 02:53:49;;;;;;;12.95;3.00;;;3.80;82.30;;;;;;9181726;19;20473;-64
2023/01/31 02:56:52;;;;;;;14.23;2.72;;;3.80;82.40;;;;;;9179862;19;20044;-61
2023/01/31 02:59:58;;;;;;;12.60;2.15;;;3.80;82.40;;;;;;9180690;19;20369;-60
2023/01/31 03:03:06;;;;;;;14.07;2.45;;;3.80;82.40;;;;;;9179661;19;20041;-62
2023/01/31 03:06:42;;;;;;;22.73;2.70;;;3.80;82.40;;;;;;9179332;19;20018;-61
2023/01/31 03:09:58;;;;;;;17.45;3.10;;;3.80;82.50;;;;;;9179850;19;20025;-63
2023/01/31 03:13:19;;;;;;;27.73;3.88;;;3.70;82.40;;;;;;9179449;19;20010;-61
2023/01/31 03:19:55;;;;;;;13.60;3.03;;;3.70;82.40;;;;;;9179442;19;20011;-61
2023/01/31 03:23:02;;;;;;;15.18;2.58;;;3.80;82.50;;;;;;9179343;19;20022;-62
2023/01/31 03:26:11;;;;;;;28.90;2.97;;;3.70;82.50;;;;;;9178893;19;20019;-61
2023/01/31 03:29:17;;;;;;;11.90;2.50;;;3.80;82.50;;;;;;9181173;19;20367;-63
2023/01/31 03:32:27;;;;;;;13.90;2.83;;;3.70;82.50;;;;;;9179046;19;20021;-61
2023/01/31 03:35:34;;;;;;;22.05;3.08;;;3.80;82.70;;;;;;9180972;19;20050;-64
2023/01/31 03:38:50;;;;;;;23.55;3.03;;;3.80;82.60;;;;;;9178627;19;20014;-63
2023/01/31 03:42:06;;;;;;;18.90;3.65;;;3.80;82.70;;;;;;9178961;19;20039;-63
2023/01/31 03:45:16;;;;;;;27.83;3.78;;;3.70;82.60;;;;;;9173759;19;20025;-66
2023/01/31 03:48:23;;;;;;;23.38;3.30;;;3.80;82.70;;;;;;9179336;19;20027;-62
2023/01/31 03:51:33;;;;;;;15.07;2.83;;;3.80;82.70;;;;;;9178726;19;20025;-60
2023/01/31 03:54:42;;;;;;;20.77;3.45;;;3.80;82.80;;;;;;9178791;19;20649;-62
2023/01/31 03:57:55;;;;;;;19.50;2.95;;;3.80;82.80;;;;;;9178313;19;20029;-63
2023/01/31 04:01:02;;;;;;;25.58;3.50;;;3.80;82.90;;;;;;9176435;19;20019;-62
2023/01/31 04:04:11;;;;;;;17.95;2.92;;;3.80;82.90;;;;;;9177356;19;20045;-61
2023/01/31 04:07:16;;;;;;;21.05;5.07;;;3.90;82.90;;;;;;9178682;19;20035;-63
2023/01/31 04:10:23;;;;;;;19.13;2.85;;;3.90;82.90;;;;;;9176374;19;20018;-62
2023/01/31 04:13:28;;;;;;;18.70;3.30;;;3.90;83.00;;;;;;9178684;19;20018;-63
2023/01/31 04:16:34;;;;;;;27.67;2.97;;;4.00;83.10;;;;;;9179694;19;20356;-62
2023/01/31 04:19:38;;;;;;;18.20;2.75;;;4.00;83.10;;;;;;9179302;19;20704;-60
2023/01/31 04:22:44;;;;;;;18.73;3.97;;;4.00;83.00;;;;;;9179116;19;20021;-63
2023/01/31 04:25:48;;;;;;;26.92;5.50;;;4.10;83.20;;;;;;9176533;19;20040;-62
2023/01/31 04:28:56;;;;;;;20.23;3.35;;;4.10;83.20;;;;;;9178068;19;20659;-62
2023/01/31 04:32:00;;;;;;;20.90;3.83;;;4.10;83.20;;;;;;9179716;19;20782;-65
2023/01/31 04:35:07;;;;;;;20.85;4.28;;;4.20;83.30;;;;;;9178700;19;20022;-62
2023/01/31 04:38:11;;;;;;;20.10;3.53;;;4.20;83.30;;;;;;9179172;19;20026;-63
2023/01/31 04:41:16;;;;;;;33.10;3.80;;;4.30;83.30;;;;;;9179200;19;20010;-63
2023/01/31 04:44:22;;;;;;;;;;;4.30;83.30;;;;;;9179040;19;20031;-63
2023/01/31 04:47:28;;;;;;;17.92;3.45;;;4.30;83.30;;;;;;9174770;19;19922;-63
2023/01/31 04:50:32;;;;;;;28.17;4.32;;;4.40;83.20;;;;;;9178741;19;20010;-64
2023/01/31 04:53:38;;;;;;;21.00;4.05;;;4.40;83.30;;;;;;9177428;19;20018;-62
2023/01/31 04:56:42;;;;;;;22.63;3.92;;;4.40;83.30;;;;;;9177796;19;20471;-63
2023/01/31 04:59:51;;;;;;;26.75;4.15;;;4.50;83.40;;;;;;9178574;19;20018;-61
2023/01/31 05:02:55;;;;;;;32.75;5.40;;;4.50;83.40;;;;;;9179053;19;20011;-62
2023/01/31 05:06:01;;;;;;;24.77;4.82;;;4.60;83.50;;;;;;9175147;19;20025;-62
2023/01/31 05:09:05;;;;;;;;;;;4.60;84.10;;;;;;9178860;19;20006;-61
2023/01/31 05:12:11;;;;;;;25.58;4.57;;;4.60;83.50;;;;;;9174145;19;19923;-61
2023/01/31 05:15:17;;;;;;;;;;;4.70;83.40;;;;;;9178910;19;20011;-64
2023/01/31 05:18:23;;;;;;;30.25;3.95;;;4.70;83.40;;;;;;9177476;19;19937;-62
2023/01/31 05:21:27;;;;;;;;;;;4.70;83.40;;;;;;9178885;19;20037;-60
2023/01/31 05:24:35;;;;;;;35.42;5.93;;;4.80;83.40;;;;;;9176663;19;19919;-64
2023/01/31 05:27:39;;;;;;;30.13;4.88;;;4.80;83.40;;;;;;9177698;19;20096;-62
2023/01/31 05:30:47;;;;;;;23.63;4.15;;;4.80;83.40;;;;;;9176560;19;20015;-65
2023/01/31 05:33:52;;;;;;;21.45;4.20;;;4.90;83.60;;;;;;9176823;19;20023;-63
2023/01/31 05:36:58;;;;;;;28.45;4.53;;;4.90;83.60;;;;;;9175725;19;20026;-62
2023/01/31 05:40:02;;;;;;;29.17;4.57;;;4.90;83.60;;;;;;9184943;19;20014;-66
2023/01/31 05:43:08;;;;;;;18.88;4.47;;;5.00;83.60;;;;;;9182930;19;20018;-63
2023/01/31 05:46:14;;;;;;;;;;;5.00;83.70;;;;;;9179557;19;20015;-61
2023/01/31 05:49:20;;;;;;;18.60;4.28;;;5.00;83.60;;;;;;9184750;19;20358;-61
2023/01/31 05:52:23;;;;;;;;;;;5.00;83.60;;;;;;9183001;19;20637;-64
2023/01/31 05:55:29;;;;;;;25.52;4.97;;;5.00;83.50;;;;;;9184018;19;20348;-63
2023/01/31 05:58:34;;;;;;;28.88;5.10;;;5.10;83.50;;;;;;9183491;19;20010;-65
2023/01/31 06:01:42;;;;;;;24.15;5.53;;;5.10;83.60;;;;;;9183741;19;20018;-64
2023/01/31 06:04:46;;;;;;;23.73;5.40;;;5.10;83.60;;;;;;9181332;19;20023;-62
2023/01/31 06:07:52;;;;;;;25.98;7.05;;;5.10;83.70;;;;;;9184423;19;20014;-60
2023/01/31 06:10:55;;;;;;;;;;;5.10;83.60;;;;;;9182892;19;20025;-60
2023/01/31 06:14:01;;;;;;;24.40;6.35;;;5.10;83.70;;;;;;9183629;19;19929;-63
2023/01/31 06:17:07;;;;;;;;;;;5.10;83.60;;;;;;9185798;19;20010;-62
2023/01/31 06:20:13;;;;;;;23.77;6.10;;;5.20;83.70;;;;;;9183536;19;20340;-61
2023/01/31 06:23:17;;;;;;;28.70;6.88;;;5.20;83.70;;;;;;9183235;19;20043;-61
2023/01/31 06:26:23;;;;;;;23.35;6.10;;;5.20;83.70;;;;;;9180993;19;20025;-61
2023/01/31 06:29:26;;;;;;;;;;;5.20;83.80;;;;;;9184371;19;20078;-62
2023/01/31 06:32:35;;;;;;;28.65;6.72;;;5.30;83.80;;;;;;9183117;19;20272;-62
2023/01/31 06:35:39;;;;;;;27.52;6.80;;;5.30;83.80;;;;;;9183495;19;20021;-63
2023/01/31 06:38:45;;;;;;;30.17;7.05;;;5.30;83.80;;;;;;9181940;19;20018;-64
2023/01/31 06:41:48;;;;;;;;;;;5.30;83.80;;;;;;9183584;19;20022;-63
2023/01/31 06:44:54;;;;;;;39.50;8.00;;;5.30;83.90;;;;;;9177953;19;19914;-62
2023/01/31 06:48:00;;;;;;;;;;;5.40;83.80;;;;;;9184294;19;20017;-61
2023/01/31 06:51:06;;;;;;;28.33;7.95;;;5.40;83.90;;;;;;9179023;19;19915;-64
2023/01/31 06:54:10;;;;;;;35.30;7.05;;;5.40;83.80;;;;;;9181863;19;20019;-61
2023/01/31 06:57:16;;;;;;;29.42;7.07;;;5.40;83.90;;;;;;9182357;19;20019;-64
2023/01/31 07:00:20;;;;;;;;;;;5.50;84.00;;;;;;9182727;19;20025;-65
2023/01/31 07:03:28;;;;;;;28.17;6.90;;;5.50;84.00;;;;;;9179298;19;19915;-64
2023/01/31 07:06:32;;;;;;;27.27;7.70;;;5.50;83.90;;;;;;9178946;19;20018;-63
2023/01/31 07:09:37;;;;;;;26.30;8.63;;;5.50;83.90;;;;;;9179566;19;20026;-62
2023/01/31 07:12:41;;;;;;;;;;;5.50;83.90;;;;;;9171678;19;20548;-62
2023/01/31 07:15:47;;;;;;;27.88;7.97;;;5.60;84.00;;;;;;9170641;19;19919;-63
2023/01/31 07:18:54;;;;;;;;;;;5.60;83.90;;;;;;9168534;19;20044;-65
2023/01/31 07:22:00;;;;;;;42.78;9.57;;;5.60;84.00;;;;;;9171495;19;19921;-63
2023/01/31 07:25:04;;;;;;;;;;;5.60;83.90;;;;;;9169663;19;20018;-62
2023/01/31 07:28:12;;;;;;;32.53;7.97;;;5.60;84.00;;;;;;9169291;19;19925;-61
2023/01/31 07:31:16;;;;;;;24.80;9.50;;;5.60;83.90;;;;;;9171661;19;20022;-65
2023/01/31 07:34:24;;;;;;;32.35;9.00;;;5.70;84.00;;;;;;9168853;19;20017;-64
2023/01/31 07:37:28;;;;;;;48.55;12.10;;;5.70;84.10;;;;;;9168240;19;20022;-62
2023/01/31 07:40:34;;;;;;;41.22;10.38;;;5.70;84.10;;;;;;9166005;19;20400;-64
2023/01/31 07:43:37;;;;;;;29.42;10.35;;;5.80;84.20;;;;;;9170938;19;20375;-63
2023/01/31 07:46:43;;;;;;;32.33;8.90;;;5.80;84.20;;;;;;9168455;19;20018;-67
2023/01/31 07:49:49;;;;;;;;;;;5.80;84.20;;;;;;9176181;19;20014;-62
2023/01/31 07:52:55;;;;;;;33.45;9.52;;;5.80;84.20;;;;;;9172606;19;19915;-65
2023/01/31 07:56:07;;;;;;;39.38;11.75;;;5.80;84.10;;;;;;9171990;19;20375;-62
2023/01/31 07:59:13;;;;;;;;;;;5.80;84.20;;;;;;9181887;19;20440;-65
2023/01/31 08:05:39;;;;;;;23.65;9.13;;;5.90;84.10;;;;;;9176171;19;20023;-63
2023/01/31 08:08:44;;;;;;;30.55;9.50;;;5.90;84.20;;;;;;9179192;19;20022;-64
2023/01/31 08:11:50;;;;;;;31.83;9.18;;;5.90;84.30;;;;;;9175096;19;20030;-64
2023/01/31 08:14:54;;;;;;;34.03;8.82;;;5.90;84.80;;;;;;9174250;19;20022;-64
2023/01/31 08:18:00;;;;;;;39.90;9.40;;;5.90;84.30;;;;;;9168517;19;20018;-63
2023/01/31 08:21:08;;;;;;;28.35;8.38;;;5.90;84.30;;;;;;9167234;19;20006;-63
2023/01/31 08:24:14;;;;;;;43.30;8.88;;;5.90;84.30;;;;;;9167662;19;20381;-66
2023/01/31 08:27:18;;;;;;;30.73;7.30;;;6.00;84.40;;;;;;9164487;19;20044;-63
2023/01/31 08:30:24;;;;;;;28.20;7.72;;;6.00;84.40;;;;;;9171383;19;20015;-62
2023/01/31 08:33:28;;;;;;;28.83;7.25;;;6.00;84.40;;;;;;9169862;19;20015;-62
2023/01/31 08:36:36;;;;;;;28.70;7.45;;;6.00;84.50;;;;;;9172158;19;20474;-61
2023/01/31 08:39:40;;;;;;;33.85;8.38;;;6.00;84.50;;;;;;9172270;19;20020;-63
2023/01/31 08:42:54;;;;;;;30.63;8.20;;;6.10;84.60;;;;;;9168864;19;20014;-64
2023/01/31 08:45:58;;;;;;;37.22;7.57;;;6.10;84.70;;;;;;9164962;19;20537;-63
2023/01/31 08:49:07;;;;;;;20.80;7.10;;;6.10;84.60;;;;;;9170026;19;20021;-62
2023/01/31 08:52:13;;;;;;;34.63;7.80;;;6.10;84.60;;;;;;9171441;19;20037;-62
2023/01/31 08:55:19;;;;;;;32.85;7.20;;;6.10;84.60;;;;;;9169094;19;20022;-63
2023/01/31 08:58:23;;;;;;;30.50;7.65;;;6.20;84.60;;;;;;9173668;19;20025;-61
2023/01/31 09:01:29;;;;;;;23.05;6.15;;;6.20;84.70;;;;;;9170340;19;20494;-64
2023/01/31 09:04:34;;;;;;;32.05;7.38;;;6.20;84.60;;;;;;9170406;19;20019;-65
2023/01/31 09:07:41;;;;;;;25.67;5.80;;;6.20;84.70;;;;;;9172722;19;20966;-62
2023/01/31 09:10:51;;;;;;;38.00;8.10;;;6.30;84.70;;;;;;9169394;19;20017;-63
2023/01/31 09:13:57;;;;;;;28.30;7.28;;;6.30;84.70;;;;;;9166259;19;20021;-66
2023/01/31 09:17:02;;;;;;;24.13;6.95;;;6.30;84.60;;;;;;9168589;19;20015;-67
2023/01/31 09:20:09;;;;;;;32.95;6.82;;;6.30;84.70;;;;;;9170052;19;20017;-66
2023/01/31 09:23:15;;;;;;;30.00;7.35;;;6.40;84.70;;;;;;9169035;19;20035;-62
2023/01/31 09:26:23;;;;;;;25.10;7.28;;;6.40;84.70;;;;;;9166391;19;20360;-61
2023/01/31 09:29:28;;;;;;;30.98;7.07;;;6.40;84.70;;;;;;9169535;19;20644;-61
2023/01/31 09:32:35;;;;;;;27.83;7.25;;;6.40;84.70;;;;;;9169866;19;20038;-61
2023/01/31 09:35:39;;;;;;;27.85;7.57;;;6.40;84.70;;;;;;9169380;19;20042;-62
2023/01/31 09:38:47;;;;;;;21.23;7.47;;;6.50;84.80;;;;;;9167114;19;20025;-66
2023/01/31 09:41:54;;;;;;;28.65;7.38;;;6.50;84.80;;;;;;9168942;19;20011;-64
2023/01/31 09:45:03;;;;;;;28.50;7.10;;;6.50;84.80;;;;;;9165421;19;20015;-62
2023/01/31 09:48:08;;;;;;;27.67;7.75;;;6.60;84.80;;;;;;9163732;19;20011;-62
2023/01/31 09:51:15;;;;;;;17.25;7.38;;;6.60;84.80;;;;;;9171560;19;20025;-64
2023/01/31 09:54:28;;;;;;;25.23;7.20;;;6.60;84.80;;;;;;9167851;19;20024;-62
2023/01/31 09:57:44;;;;;;;31.85;8.30;;;6.70;84.90;;;;;;9169243;19;20017;-62
2023/01/31 10:00:51;;;;;;;28.05;8.23;;;6.60;84.80;;;;;;9168659;19;20014;-62
2023/01/31 10:04:16;;;;;;;34.90;8.68;;;6.70;84.80;;;;;;9171288;19;20014;-63
2023/01/31 10:07:26;;;;;;;41.22;8.55;;;6.70;84.90;;;;;;9166698;19;20526;-66
2023/01/31 10:10:37;;;;;;;29.52;8.32;;;6.80;84.90;;;;;;9169061;19;20019;-66
2023/01/31 10:13:48;;;;;;;27.27;7.70;;;6.80;84.90;;;;;;9172426;19;20014;-63
2023/01/31 10:17:02;;;;;;;30.33;7.18;;;6.80;84.90;;;;;;9175016;19;20011;-65
2023/01/31 10:20:14;;;;;;;25.25;8.60;;;6.80;84.80;;;;;;9172787;19;20486;-65
2023/01/31 10:23:26;;;;;;;32.90;8.27;;;6.90;84.90;;;;;;9166818;19;20019;-61
2023/01/31 10:26:37;;;;;;;31.92;8.13;;;6.90;84.90;;;;;;9171650;19;20015;-61
2023/01/31 10:29:50;;;;;;;23.33;8.90;;;7.00;84.90;;;;;;9178232;19;20017;-63
2023/01/31 10:32:59;;;;;;;28.23;8.00;;;7.00;85.00;;;;;;9175167;19;20074;-63
2023/01/31 10:36:12;;;;;;;25.73;7.00;;;7.00;84.90;;;;;;9173107;19;20016;-65
2023/01/31 10:39:22;;;;;;;27.27;7.95;;;7.00;84.90;;;;;;9175844;19;20483;-64
2023/01/31 10:42:33;;;;;;;27.25;8.15;;;7.00;84.80;;;;;;9174168;19;20884;-64
2023/01/31 10:45:37;;;;;;;22.17;7.03;;;7.10;84.90;;;;;;9171074;19;20022;-64
2023/01/31 10:48:45;;;;;;;32.20;7.47;;;7.10;84.80;;;;;;9174211;19;20013;-63
2023/01/31 10:52:12;;;;;;;21.10;6.03;;;7.10;84.80;;;;;;9174619;19;20050;-63
2023/01/31 10:55:34;;;;;;;26.77;6.47;;;7.10;84.80;;;;;;9174774;19;20010;-65
2023/01/31 10:58:41;;;;;;;33.83;7.18;;;7.10;84.80;;;;;;9172693;19;20466;-63
2023/01/31 11:01:47;;;;;;;18.73;5.95;;;7.10;84.70;;;;;;9175144;19;20015;-64
2023/01/31 11:04:51;;;;;;;;;;;7.20;84.80;;;;;;9176570;19;20015;-62
2023/01/31 11:07:58;;;;;;;26.25;7.03;;;7.20;84.80;;;;;;9174025;19;19934;-62
2023/01/31 11:11:08;;;;;;;23.55;6.75;;;7.20;84.70;;;;;;9171703;19;20018;-62
2023/01/31 11:14:19;;;;;;;36.95;7.57;;;7.20;84.80;;;;;;9174925;19;20019;-63
2023/01/31 11:17:25;;;;;;;23.67;6.20;;;7.20;84.80;;;;;;9172730;19;20014;-63
2023/01/31 11:20:33;;;;;;;26.02;6.10;;;7.20;84.80;;;;;;9174021;19;20022;-62
2023/01/31 11:23:37;;;;;;;24.38;6.15;;;7.20;84.80;;;;;;9173425;19;20022;-64
2023/01/31 11:26:54;;;;;;;19.15;6.85;;;7.20;85.40;;;;;;9170924;19;20018;-64
2023/01/31 11:30:03;;;;;;;15.40;6.00;;;7.30;84.90;;;;;;9173705;19;20033;-68
2023/01/31 11:33:30;;;;;;;28.75;6.60;;;7.30;84.90;;;;;;9171893;19;20010;-63
2023/01/31 11:36:41;;;;;;;24.58;5.95;;;7.30;84.90;;;;;;9168769;19;20021;-65
2023/01/31 11:39:56;;;;;;;24.23;6.18;;;7.30;84.90;;;;;;9166699;19;20025;-65
2023/01/31 11:43:02;;;;;;;19.63;5.90;;;7.30;85.00;;;;;;9168872;19;20585;-63
2023/01/31 11:46:10;;;;;;;22.77;6.07;;;7.40;84.90;;;;;;9161037;19;20022;-63
2023/01/31 11:49:20;;;;;;;14.38;5.43;;;7.40;85.00;;;;;;9167199;19;20029;-67
2023/01/31 11:52:31;;;;;;;18.70;5.97;;;7.40;85.00;;;;;;9172629;19;20474;-64
2023/01/31 11:55:39;;;;;;;22.20;6.70;;;7.40;85.00;;;;;;9172391;19;20022;-64
2023/01/31 11:58:46;;;;;;;26.05;6.90;;;7.40;85.10;;;;;;9170752;19;20014;-64
2023/01/31 12:01:54;;;;;;;18.02;5.68;;;7.40;85.10;;;;;;9172261;19;20491;-66
2023/01/31 12:05:01;;;;;;;21.50;6.18;;;7.40;85.10;;;;;;9172662;19;20006;-64
2023/01/31 12:08:06;;;;;;;21.73;5.50;;;7.40;85.10;;;;;;9175993;19;20017;-67
2023/01/31 12:11:28;;;;;;;21.00;6.55;;;7.50;85.20;;;;;;9169707;19;20014;-65
2023/01/31 12:14:40;;;;;;;18.30;5.90;;;7.50;85.40;;;;;;9172789;19;20019;-65
2023/01/31 12:17:50;;;;;;;13.45;5.03;;;7.50;85.30;;;;;;9173455;19;20022;-65
2023/01/31 12:21:03;;;;;;;27.33;6.18;;;7.50;85.90;;;;;;9178062;19;20020;-65
2023/01/31 12:24:15;;;;;;;19.52;5.75;;;7.50;85.30;;;;;;9176687;19;20022;-67
2023/01/31 12:27:35;;;;;;;18.65;6.28;;;7.50;85.40;;;;;;9168407;19;20102;-65
2023/01/31 12:31:07;;;;;;;12.45;5.28;;;7.50;85.40;;;;;;9171427;19;20014;-66
2023/01/31 12:34:26;;;;;;;16.77;5.32;;;7.50;85.40;;;;;;9171679;19;20022;-66
2023/01/31 12:37:44;;;;;;;15.18;5.55;;;7.50;85.50;;;;;;9172128;19;20021;-66
2023/01/31 12:40:56;;;;;;;13.23;5.00;;;7.60;85.50;;;;;;9171383;19;20479;-67
2023/01/31 12:44:16;;;;;;;13.68;5.65;;;7.60;85.60;;;;;;9172093;19;20017;-66
2023/01/31 12:47:41;;;;;;;14.40;5.88;;;7.60;85.60;;;;;;9163646;19;20633;-65
2023/01/31 12:50:53;;;;;;;11.73;5.93;;;7.60;85.70;;;;;;9172673;19;20019;-65
2023/01/31 12:54:04;;;;;;;14.38;6.10;;;7.60;85.70;;;;;;9169887;19;20026;-66
2023/01/31 12:57:24;;;;;;;13.98;5.18;;;7.60;85.70;;;;;;9171121;19;20054;-67
2023/01/31 13:00:37;;;;;;;11.73;5.28;;;7.70;85.80;;;;;;9170719;19;20384;-67
2023/01/31 13:03:57;;;;;;;17.52;5.65;;;7.70;85.80;;;;;;9168436;19;20010;-67
2023/01/31 13:07:09;;;;;;;16.83;5.30;;;7.70;85.80;;;;;;9168426;19;20017;-65
2023/01/31 13:10:26;;;;;;;;;;;7.70;85.90;;;;;;9171878;19;20014;-66
2023/01/31 13:13:36;;;;;;;19.23;6.25;;;7.80;85.90;;;;;;9170837;19;19932;-69
2023/01/31 13:16:46;;;;;;;15.82;5.22;;;7.80;85.80;;;;;;9169492;19;20018;-66
2023/01/31 13:19:52;;;;;;;22.33;5.97;;;7.80;85.90;;;;;;9169355;19;20490;-66
2023/01/31 13:23:04;;;;;;;18.73;5.97;;;7.90;86.00;;;;;;9168760;19;20022;-68
2023/01/31 13:26:13;;;;;;;17.02;5.32;;;7.90;86.10;;;;;;9168657;19;20019;-65
2023/01/31 13:29:23;;;;;;;15.95;4.70;;;7.90;86.10;;;;;;9175285;19;20018;-66
2023/01/31 13:32:31;;;;;;;18.05;4.53;;;8.00;86.10;;;;;;9177459;19;20018;-66
2023/01/31 13:35:42;;;;;;;18.02;4.97;;;8.00;86.20;;;;;;9177009;19;20014;-66
2023/01/31 13:38:48;;;;;;;24.42;6.25;;;8.10;86.20;;;;;;9177312;19;20017;-67
2023/01/31 13:41:54;;;;;;;11.45;4.18;;;8.10;86.20;;;;;;9176925;19;20472;-66
2023/01/31 13:45:09;;;;;;;16.77;4.63;;;8.20;86.20;;;;;;9172100;19;20014;-65
2023/01/31 13:48:26;;;;;;;17.40;5.22;;;8.20;86.30;;;;;;9172666;19;20029;-68
2023/01/31 13:51:35;;;;;;;26.80;4.70;;;8.20;86.30;;;;;;9177872;19;20018;-68
2023/01/31 13:54:47;;;;;;;16.83;4.65;;;8.30;86.30;;;;;;9175858;19;20006;-66
2023/01/31 13:57:58;;;;;;;16.20;4.10;;;8.30;86.40;;;;;;9174620;19;20018;-65
2023/01/31 14:01:08;;;;;;;16.02;4.85;;;8.30;86.40;;;;;;9178017;19;20021;-65
2023/01/31 14:04:26;;;;;;;13.57;3.78;;;8.40;86.40;;;;;;9179187;19;20090;-69
2023/01/31 14:07:31;;;;;;;18.38;3.70;;;8.40;86.40;;;;;;9182596;19;20022;-65
2023/01/31 14:10:44;;;;;;;16.95;4.10;;;8.50;86.40;;;;;;9179653;19;20125;-66
2023/01/31 14:13:51;;;;;;;;;;;8.50;86.40;;;;;;9183270;19;20033;-66
2023/01/31 14:16:54;;;;;;;19.00;3.97;;;8.60;86.40;;;;;;9182602;19;19920;-65
2023/01/31 14:20:08;;;;;;;20.95;5.07;;;8.60;86.20;;;;;;9176306;19;20010;-66
2023/01/31 14:23:31;;;;;;;17.30;3.60;;;8.70;86.40;;;;;;9176132;19;20026;-67
2023/01/31 14:26:53;;;;;;;12.10;4.10;;;8.70;86.40;;;;;;9178303;19;20734;-66
2023/01/31 14:30:08;;;;;;;20.05;3.65;;;8.70;86.40;;;;;;9183374;19;20048;-66
2023/01/31 14:33:29;;;;;;;14.93;4.80;;;8.80;86.30;;;;;;9183164;19;20478;-66
2023/01/31 14:36:48;;;;;;;21.00;3.53;;;8.80;86.30;;;;;;9181793;19;20024;-67
2023/01/31 14:40:18;;;;;;;20.70;3.92;;;8.90;86.40;;;;;;9182709;19;20018;-66
2023/01/31 14:43:39;;;;;;;23.55;3.50;;;8.90;86.30;;;;;;9177579;19;20014;-66
2023/01/31 14:47:15;;;;;;;14.38;2.63;;;8.90;86.30;;;;;;9167493;19;20014;-65
2023/01/31 14:50:36;;;;;;;13.05;3.13;;;8.90;86.30;;;;;;9175111;19;20553;-65
2023/01/31 14:54:11;;;;;;;11.07;2.63;;;8.90;86.20;;;;;;9177190;19;20033;-67
2023/01/31 14:57:20;;;;;;;19.15;3.08;;;9.00;86.30;;;;;;9173184;19;20018;-69
2023/01/31 15:00:31;;;;;;;12.35;2.88;;;9.00;86.20;;;;;;9173704;19;20018;-67
2023/01/31 15:03:39;;;;;;;11.77;2.25;;;9.00;86.20;;;;;;9174248;19;20041;-66
2023/01/31 15:06:49;;;;;;;19.02;2.95;;;9.10;86.20;;;;;;9172486;19;20019;-67
2023/01/31 15:09:54;;;;;;;14.70;2.50;;;9.10;86.20;;;;;;9173293;19;20029;-65
2023/01/31 15:13:01;;;;;;;18.48;3.45;;;9.10;86.20;;;;;;9174637;19;20025;-66
2023/01/31 15:16:10;;;;;;;22.17;4.03;;;9.10;86.10;;;;;;9172584;19;20602;-66
2023/01/31 15:19:19;;;;;;;17.10;2.45;;;9.20;86.10;;;;;;9174254;19;20033;-66
2023/01/31 15:22:24;;;;;;;16.85;2.85;;;9.10;86.00;;;;;;9171684;19;20006;-66
2023/01/31 15:25:34;;;;;;;8.98;2.70;;;9.20;86.00;;;;;;9173397;19;20018;-66
2023/01/31 15:28:42;;;;;;;20.27;3.30;;;9.20;86.00;;;;;;9171195;19;20124;-69
2023/01/31 15:31:54;;;;;;;15.98;2.85;;;9.20;85.90;;;;;;9171940;19;20014;-68
2023/01/31 15:35:05;;;;;;;9.20;2.40;;;9.20;85.90;;;;;;9173651;19;20041;-67
2023/01/31 15:38:23;;;;;;;13.35;2.45;;;9.20;85.80;;;;;;9172335;19;20014;-67
2023/01/31 15:41:36;;;;;;;8.30;2.38;;;9.20;85.70;;;;;;9172560;19;20933;-67
2023/01/31 15:44:42;;;;;;;11.57;2.33;;;9.20;85.70;;;;;;9170906;19;20017;-66
2023/01/31 15:47:56;;;;;;;17.40;2.90;;;9.20;85.60;;;;;;9170663;19;20025;-67
2023/01/31 15:51:02;;;;;;;18.40;3.17;;;9.20;85.60;;;;;;9172753;19;20014;-65
2023/01/31 15:54:08;;;;;;;22.88;2.95;;;9.20;85.60;;;;;;9171630;19;20025;-67
2023/01/31 15:57:17;;;;;;;20.02;2.67;;;9.20;85.50;;;;;;9173268;19;20019;-66
2023/01/31 16:00:25;;;;;;;20.80;2.85;;;9.20;85.40;;;;;;9172613;19;20026;-67
2023/01/31 16:03:35;;;;;;;25.00;3.55;;;9.20;85.40;;;;;;9171157;19;20033;-65
2023/01/31 16:06:41;;;;;;;15.75;3.33;;;9.20;85.40;;;;;;9172520;19;20014;-66
2023/01/31 16:09:47;;;;;;;21.05;2.72;;;9.20;85.30;;;;;;9166901;19;20528;-67
2023/01/31 16:12:53;;;;;;;16.58;2.58;;;9.20;85.30;;;;;;9159529;19;20082;-65
2023/01/31 16:15:59;;;;;;;24.52;3.22;;;9.20;85.20;;;;;;9162586;19;20010;-66
2023/01/31 16:19:06;;;;;;;24.08;3.45;;;9.20;85.80;;;;;;9171571;19;20055;-65
2023/01/31 16:22:25;;;;;;;13.40;2.42;;;9.20;85.10;;;;;;9171351;19;20010;-65
2023/01/31 16:25:31;;;;;;;26.25;3.42;;;9.20;85.10;;;;;;9172637;19;20015;-66
2023/01/31 16:28:43;;;;;;;18.35;3.53;;;9.20;85.10;;;;;;9169233;19;20015;-63
2023/01/31 16:31:50;;;;;;;23.25;3.83;;;9.10;84.90;;;;;;9172050;19;20048;-63
2023/01/31 16:35:01;;;;;;;11.13;2.45;;;9.10;84.90;;;;;;9170321;19;20025;-64
2023/01/31 16:38:08;;;;;;;17.15;2.95;;;9.10;84.90;;;;;;9172303;19;20030;-63
2023/01/31 16:41:14;;;;;;;19.50;4.95;;;9.10;84.90;;;;;;9169779;19;20006;-67
2023/01/31 16:44:25;;;;;;;21.45;3.65;;;9.00;84.80;;;;;;9163742;19;20054;-63